Time;durP1;ratioP1;P1;durP2;ratioP2;P2;SDS_P1;SDS_P2;PMS_P1;PMS_P2;Temp;Humidity;BMP_temperature;BMP_pressure;BME280_temperature;BME280_humidity;BME280_pressure;Samples;Min_cycle;Max_cycle;Signal;HPM_P1;HPM_P2
2021/11/27 00:01:24;;;;;;;22.60;15.90;;;;;;;;;;5058256;28;20052;-66
2021/11/27 00:03:54;;;;;;;20.88;14.75;;;;;;;;;;5057099;28;20452;-66
2021/11/27 00:06:21;;;;;;;21.65;15.07;;;;;;;;;;5051562;28;20065;-67
2021/11/27 00:08:48;;;;;;;23.15;15.55;;;;;;;;;;5058578;28;20052;-67
2021/11/27 00:11:14;;;;;;;22.17;15.18;;;;;;;;;;5046820;28;20049;-67
2021/11/27 00:13:40;;;;;;;22.80;15.52;;;;;;;;;;5054074;28;20063;-67
2021/11/27 00:16:07;;;;;;;23.88;15.23;;;;;;;;;;5051323;28;20731;-66
2021/11/27 00:18:33;;;;;;;23.55;15.30;;;;;;;;;;5057573;28;20059;-67
2021/11/27 00:21:01;;;;;;;22.50;15.15;;;;;;;;;;5058781;28;20473;-66
2021/11/27 00:23:30;;;;;;;24.92;14.85;;;;;;;;;;5044863;28;20104;-68
2021/11/27 00:25:57;;;;;;;26.27;16.38;;;;;;;;;;5050464;28;20052;-66
2021/11/27 00:28:23;;;;;;;22.35;15.02;;;;;;;;;;5046095;28;20432;-66
2021/11/27 00:30:50;;;;;;;21.83;15.45;;;;;;;;;;5057511;28;20610;-66
2021/11/27 00:33:17;;;;;;;22.38;15.40;;;;;;;;;;5051208;28;20087;-66
2021/11/27 00:35:43;;;;;;;23.65;16.02;;;;;;;;;;5057694;28;21117;-66
2021/11/27 00:38:10;;;;;;;24.13;16.02;;;;;;;;;;5053718;28;20059;-66
2021/11/27 00:40:38;;;;;;;27.27;16.60;;;;;;;;;;5043314;28;20138;-66
2021/11/27 00:43:05;;;;;;;23.38;15.55;;;;;;;;;;5056106;28;20492;-66
2021/11/27 00:45:31;;;;;;;24.55;16.38;;;;;;;;;;5048386;28;20052;-66
2021/11/27 00:47:58;;;;;;;24.30;15.85;;;;;;;;;;5058108;28;20040;-67
2021/11/27 00:50:30;;;;;;;26.00;15.77;;;;;;;;;;5050871;28;20041;-67
2021/11/27 00:52:58;;;;;;;23.73;15.10;;;;;;;;;;5051349;28;20041;-67
2021/11/27 00:55:25;;;;;;;23.67;14.90;;;;;;;;;;5053155;28;20044;-68
2021/11/27 00:57:51;;;;;;;25.15;15.98;;;;;;;;;;5047892;28;20433;-67
2021/11/27 01:00:20;;;;;;;26.35;16.85;;;;;;;;;;5057956;28;20048;-67
2021/11/27 01:02:47;;;;;;;25.70;16.17;;;;;;;;;;5053084;28;20163;-67
2021/11/27 01:05:14;;;;;;;24.95;15.18;;;;;;;;;;5057789;28;20059;-67
2021/11/27 01:07:41;;;;;;;25.73;16.23;;;;;;;;;;5046093;28;20190;-67
2021/11/27 01:10:09;;;;;;;24.38;15.40;;;;;;;;;;5049633;28;20134;-67
2021/11/27 01:12:35;;;;;;;24.90;15.60;;;;;;;;;;5057433;28;20053;-66
2021/11/27 01:15:04;;;;;;;23.75;14.68;;;;;;;;;;5049909;28;20052;-67
2021/11/27 01:17:31;;;;;;;20.13;12.70;;;;;;;;;;5056599;28;20052;-66
2021/11/27 01:19:57;;;;;;;22.55;13.13;;;;;;;;;;5029047;28;20111;-66
2021/11/27 01:22:24;;;;;;;17.95;11.70;;;;;;;;;;5049860;28;20056;-67
2021/11/27 01:24:51;;;;;;;16.10;10.15;;;;;;;;;;5049122;28;20055;-67
2021/11/27 01:27:17;;;;;;;18.48;9.77;;;;;;;;;;5057169;28;20056;-67
2021/11/27 01:29:44;;;;;;;15.70;9.07;;;;;;;;;;5056736;28;20055;-67
2021/11/27 01:32:11;;;;;;;15.23;9.23;;;;;;;;;;5049684;28;20454;-67
2021/11/27 01:34:40;;;;;;;15.95;7.70;;;;;;;;;;5054104;28;20090;-67
2021/11/27 01:37:06;;;;;;;;;;;;;;;;;;5044225;28;20045;-67
2021/11/27 01:39:33;;;;;;;14.38;6.68;;;;;;;;;;5057125;28;19936;-67
2021/11/27 01:41:59;;;;;;;11.68;5.15;;;;;;;;;;5049546;28;20075;-67
2021/11/27 01:44:25;;;;;;;15.30;5.50;;;;;;;;;;5056937;28;20051;-67
2021/11/27 01:46:53;;;;;;;9.30;4.20;;;;;;;;;;5056218;28;20145;-67
2021/11/27 01:49:20;;;;;;;8.55;4.25;;;;;;;;;;5044969;28;20052;-67
2021/11/27 01:51:47;;;;;;;6.75;3.60;;;;;;;;;;5053845;28;20066;-67
2021/11/27 01:54:14;;;;;;;8.88;3.85;;;;;;;;;;5051600;28;20312;-67
2021/11/27 01:56:43;;;;;;;10.43;4.30;;;;;;;;;;5058295;28;20125;-67
2021/11/27 01:59:09;;;;;;;7.90;3.50;;;;;;;;;;5058239;28;20215;-67
2021/11/27 02:01:36;;;;;;;7.88;4.10;;;;;;;;;;5050971;28;20056;-67
2021/11/27 02:04:05;;;;;;;12.13;3.80;;;;;;;;;;5051077;28;20059;-67
2021/11/27 02:06:32;;;;;;;;;;;;;;;;;;5051986;28;20150;-67
2021/11/27 02:08:58;;;;;;;7.25;2.63;;;;;;;;;;5058537;28;19924;-67
2021/11/27 02:11:27;;;;;;;4.85;2.20;;;;;;;;;;5051923;28;20052;-67
2021/11/27 02:13:54;;;;;;;4.22;2.08;;;;;;;;;;5058450;28;20163;-67
2021/11/27 02:16:20;;;;;;;4.85;1.98;;;;;;;;;;5052922;28;20539;-67
2021/11/27 02:18:47;;;;;;;4.53;1.88;;;;;;;;;;5048347;28;20245;-67
2021/11/27 02:21:15;;;;;;;4.47;1.75;;;;;;;;;;5058182;28;20048;-67
2021/11/27 02:23:42;;;;;;;3.80;2.13;;;;;;;;;;5049140;28;20457;-67
2021/11/27 02:26:10;;;;;;;5.93;2.17;;;;;;;;;;5036818;28;20044;-67
2021/11/27 02:28:38;;;;;;;3.13;1.80;;;;;;;;;;5047746;28;20098;-67
2021/11/27 02:31:04;;;;;;;4.35;2.00;;;;;;;;;;5052473;28;20271;-69
2021/11/27 02:33:32;;;;;;;8.50;1.83;;;;;;;;;;5057731;28;20109;-68
2021/11/27 02:35:58;;;;;;;3.20;1.65;;;;;;;;;;5051313;28;20052;-70
2021/11/27 02:38:25;;;;;;;5.30;1.40;;;;;;;;;;5058040;28;20049;-69
2021/11/27 02:40:51;;;;;;;4.38;1.80;;;;;;;;;;5052214;28;20052;-69
2021/11/27 02:43:17;;;;;;;1.58;1.20;;;;;;;;;;5054022;28;20125;-69
2021/11/27 02:45:44;;;;;;;2.45;0.90;;;;;;;;;;5047298;28;20057;-68
2021/11/27 02:48:10;;;;;;;3.15;1.00;;;;;;;;;;5057644;28;20063;-69
2021/11/27 02:50:36;;;;;;;2.78;1.20;;;;;;;;;;5057011;28;20067;-69
2021/11/27 02:53:03;;;;;;;1.85;0.93;;;;;;;;;;5053222;28;20321;-68
2021/11/27 02:55:29;;;;;;;2.20;0.90;;;;;;;;;;5057696;28;20170;-69
2021/11/27 02:57:56;;;;;;;6.78;1.05;;;;;;;;;;5044327;28;20048;-68
2021/11/27 03:00:23;;;;;;;5.25;1.08;;;;;;;;;;5033811;28;20052;-69
2021/11/27 03:02:50;;;;;;;4.60;1.30;;;;;;;;;;5051682;28;20052;-69
2021/11/27 03:05:16;;;;;;;4.03;1.00;;;;;;;;;;5053879;28;20153;-69
2021/11/27 03:07:43;;;;;;;4.07;1.45;;;;;;;;;;5049108;28;20059;-68
2021/11/27 03:10:11;;;;;;;2.88;0.90;;;;;;;;;;5036850;28;20048;-68
2021/11/27 03:12:37;;;;;;;3.33;0.98;;;;;;;;;;5047864;28;20131;-67
2021/11/27 03:15:07;;;;;;;2.47;1.00;;;;;;;;;;5046605;28;20467;-67
2021/11/27 03:17:33;;;;;;;2.22;0.73;;;;;;;;;;5054913;28;20414;-67
2021/11/27 03:19:59;;;;;;;4.25;1.10;;;;;;;;;;5048018;28;20052;-68
2021/11/27 03:22:26;;;;;;;3.58;0.90;;;;;;;;;;5056303;28;20432;-68
2021/11/27 03:24:52;;;;;;;2.03;0.77;;;;;;;;;;5043759;28;20457;-67
2021/11/27 03:27:18;;;;;;;2.80;1.35;;;;;;;;;;5050771;28;20060;-68
2021/11/27 03:29:45;;;;;;;2.20;1.08;;;;;;;;;;5054459;28;20414;-68
2021/11/27 03:32:13;;;;;;;2.42;1.30;;;;;;;;;;5048233;28;20439;-66
2021/11/27 03:34:39;;;;;;;2.40;1.37;;;;;;;;;;5055181;28;20044;-66
2021/11/27 03:37:05;;;;;;;5.80;1.48;;;;;;;;;;5047394;28;20076;-66
2021/11/27 03:39:32;;;;;;;2.00;1.30;;;;;;;;;;5050594;28;20052;-66
2021/11/27 03:41:59;;;;;;;2.80;1.40;;;;;;;;;;5043421;28;20106;-66
2021/11/27 03:44:26;;;;;;;4.15;1.20;;;;;;;;;;5055406;28;20132;-66
2021/11/27 03:46:53;;;;;;;3.72;1.30;;;;;;;;;;5053495;28;20364;-66
2021/11/27 03:49:23;;;;;;;2.10;1.48;;;;;;;;;;5047341;28;20048;-66
2021/11/27 03:51:50;;;;;;;2.05;1.10;;;;;;;;;;5055848;28;20754;-66
2021/11/27 03:54:16;;;;;;;2.38;1.00;;;;;;;;;;5039060;28;20048;-66
2021/11/27 03:56:43;;;;;;;1.60;0.88;;;;;;;;;;5054030;28;20071;-65
2021/11/27 03:59:09;;;;;;;2.78;1.33;;;;;;;;;;5048031;28;20059;-68
2021/11/27 04:01:36;;;;;;;1.67;0.80;;;;;;;;;;5039371;28;20058;-66
2021/11/27 04:04:03;;;;;;;2.30;0.77;;;;;;;;;;5057529;28;20420;-66
2021/11/27 04:06:31;;;;;;;2.13;0.70;;;;;;;;;;5046344;28;20044;-66
2021/11/27 04:08:59;;;;;;;1.55;0.88;;;;;;;;;;5053170;28;20402;-66
2021/11/27 04:11:26;;;;;;;1.83;0.60;;;;;;;;;;5050815;28;20131;-66
2021/11/27 04:13:54;;;;;;;3.60;0.90;;;;;;;;;;5058727;28;20071;-66
2021/11/27 04:16:20;;;;;;;2.90;0.90;;;;;;;;;;5051273;28;20107;-66
2021/11/27 04:18:47;;;;;;;1.55;0.70;;;;;;;;;;5058210;28;20052;-66
2021/11/27 04:21:14;;;;;;;3.30;0.80;;;;;;;;;;5055475;28;20075;-66
2021/11/27 04:23:41;;;;;;;1.80;0.57;;;;;;;;;;5047228;28;20073;-66
2021/11/27 04:26:08;;;;;;;4.72;0.70;;;;;;;;;;5060394;28;20048;-66
2021/11/27 04:28:34;;;;;;;1.45;0.60;;;;;;;;;;5053024;28;20048;-66
2021/11/27 04:31:01;;;;;;;4.90;0.80;;;;;;;;;;5060137;28;20052;-66
2021/11/27 04:33:28;;;;;;;1.30;0.65;;;;;;;;;;5052396;28;21493;-66
2021/11/27 04:35:55;;;;;;;1.80;0.73;;;;;;;;;;5053734;28;20061;-67
2021/11/27 04:38:22;;;;;;;1.80;0.60;;;;;;;;;;5060241;28;20058;-66
2021/11/27 04:40:50;;;;;;;4.38;0.80;;;;;;;;;;5053302;28;20571;-66
2021/11/27 04:43:17;;;;;;;1.90;0.80;;;;;;;;;;5060382;28;20505;-66
2021/11/27 04:45:44;;;;;;;2.83;0.65;;;;;;;;;;5052905;28;20048;-66
2021/11/27 04:48:10;;;;;;;2.10;0.68;;;;;;;;;;5056157;28;20352;-66
2021/11/27 04:50:37;;;;;;;3.60;0.70;;;;;;;;;;5049379;28;20134;-66
2021/11/27 04:53:04;;;;;;;1.17;0.70;;;;;;;;;;5057981;28;20048;-66
2021/11/27 04:55:31;;;;;;;2.50;0.70;;;;;;;;;;5058571;28;20413;-66
2021/11/27 04:57:58;;;;;;;2.05;0.60;;;;;;;;;;5050017;28;20710;-66
2021/11/27 05:00:29;;;;;;;2.40;0.73;;;;;;;;;;5058826;28;20063;-67
2021/11/27 05:02:56;;;;;;;3.20;0.73;;;;;;;;;;5045775;28;20056;-66
2021/11/27 05:05:23;;;;;;;0.75;0.57;;;;;;;;;;5052888;28;20052;-65
2021/11/27 05:07:50;;;;;;;3.15;1.35;;;;;;;;;;5049664;28;20044;-65
2021/11/27 05:10:17;;;;;;;2.05;0.88;;;;;;;;;;5059793;28;20044;-66
2021/11/27 05:12:43;;;;;;;1.48;1.05;;;;;;;;;;5059688;28;20048;-66
2021/11/27 05:15:10;;;;;;;2.22;0.88;;;;;;;;;;5053530;28;20052;-65
2021/11/27 05:17:37;;;;;;;1.98;1.10;;;;;;;;;;5052747;28;20230;-65
2021/11/27 05:20:04;;;;;;;2.95;1.08;;;;;;;;;;5052311;28;20805;-66
2021/11/27 05:22:30;;;;;;;2.55;1.20;;;;;;;;;;5059539;28;20071;-66
2021/11/27 05:24:57;;;;;;;3.10;1.08;;;;;;;;;;5053402;28;20049;-65
2021/11/27 05:27:23;;;;;;;1.70;1.02;;;;;;;;;;5058922;28;20492;-66
2021/11/27 05:29:49;;;;;;;1.75;1.05;;;;;;;;;;5056160;28;20972;-65
2021/11/27 05:32:23;;;;;;;3.05;0.95;;;;;;;;;;5046903;28;20045;-65
2021/11/27 05:34:50;;;;;;;2.15;1.10;;;;;;;;;;5058857;28;20461;-65
2021/11/27 05:37:16;;;;;;;2.13;1.15;;;;;;;;;;5052941;28;20052;-65
2021/11/27 05:39:43;;;;;;;2.78;1.70;;;;;;;;;;5059473;28;20057;-65
2021/11/27 05:42:10;;;;;;;1.65;1.20;;;;;;;;;;5053027;28;20053;-65
2021/11/27 05:44:36;;;;;;;4.05;2.25;;;;;;;;;;5054635;28;20059;-65
2021/11/27 05:47:03;;;;;;;2.55;1.77;;;;;;;;;;5049904;28;20056;-65
2021/11/27 05:49:29;;;;;;;3.20;1.90;;;;;;;;;;5057054;28;20053;-65
2021/11/27 05:51:55;;;;;;;5.28;2.42;;;;;;;;;;5057800;28;20051;-65
2021/11/27 05:54:22;;;;;;;5.18;2.55;;;;;;;;;;5049350;28;20364;-65
2021/11/27 05:56:48;;;;;;;4.65;2.25;;;;;;;;;;5057771;28;20075;-65
2021/11/27 05:59:15;;;;;;;5.93;3.17;;;;;;;;;;5042801;28;20037;-65
2021/11/27 06:01:41;;;;;;;5.25;2.70;;;;;;;;;;5057476;28;20973;-65
2021/11/27 06:04:07;;;;;;;5.13;2.75;;;;;;;;;;5050289;28;20044;-65
2021/11/27 06:06:34;;;;;;;7.43;3.15;;;;;;;;;;5056467;28;20063;-65
2021/11/27 06:09:00;;;;;;;7.03;3.60;;;;;;;;;;5057485;28;20049;-66
2021/11/27 06:11:27;;;;;;;5.32;3.08;;;;;;;;;;5044866;28;20048;-66
2021/11/27 06:13:53;;;;;;;5.97;3.10;;;;;;;;;;5052011;28;20056;-65
2021/11/27 06:16:20;;;;;;;5.22;3.42;;;;;;;;;;5048631;28;20051;-65
2021/11/27 06:18:46;;;;;;;6.05;3.40;;;;;;;;;;5056028;28;20049;-65
2021/11/27 06:21:12;;;;;;;5.65;3.22;;;;;;;;;;5049312;28;20064;-65
2021/11/27 06:23:39;;;;;;;9.48;3.10;;;;;;;;;;5055837;28;20057;-66
2021/11/27 06:26:05;;;;;;;7.07;3.70;;;;;;;;;;5051909;28;20051;-65
2021/11/27 06:28:33;;;;;;;6.65;3.75;;;;;;;;;;5043434;28;20493;-65
2021/11/27 06:30:59;;;;;;;5.78;3.25;;;;;;;;;;5056294;28;20059;-65
2021/11/27 06:33:26;;;;;;;7.07;3.63;;;;;;;;;;5048110;28;20084;-65
2021/11/27 06:35:53;;;;;;;5.43;3.10;;;;;;;;;;5055403;28;20055;-65
2021/11/27 06:38:21;;;;;;;5.38;3.13;;;;;;;;;;5050931;28;20044;-65
2021/11/27 06:40:48;;;;;;;7.78;3.53;;;;;;;;;;5048146;28;20052;-65
2021/11/27 06:43:14;;;;;;;6.20;3.42;;;;;;;;;;5054687;28;20048;-65
2021/11/27 06:45:40;;;;;;;5.85;3.28;;;;;;;;;;5050114;28;20048;-65
2021/11/27 06:48:07;;;;;;;5.68;3.25;;;;;;;;;;5057800;28;20134;-65
2021/11/27 06:50:33;;;;;;;5.88;3.63;;;;;;;;;;5049918;28;20402;-65
2021/11/27 06:53:00;;;;;;;6.20;3.20;;;;;;;;;;5051769;28;20553;-64
2021/11/27 06:55:26;;;;;;;5.03;3.00;;;;;;;;;;5044047;28;20056;-64
2021/11/27 06:57:52;;;;;;;6.60;3.50;;;;;;;;;;5055402;28;20066;-65
2021/11/27 07:00:19;;;;;;;4.82;2.75;;;;;;;;;;5055776;28;20048;-65
2021/11/27 07:02:45;;;;;;;5.18;3.00;;;;;;;;;;5047761;28;20452;-65
2021/11/27 07:05:12;;;;;;;7.20;2.92;;;;;;;;;;5053545;28;20120;-65
2021/11/27 07:07:38;;;;;;;5.05;2.95;;;;;;;;;;5042471;28;20052;-65
2021/11/27 07:10:05;;;;;;;4.80;2.78;;;;;;;;;;5050994;28;20051;-65
2021/11/27 07:12:36;;;;;;;5.15;2.85;;;;;;;;;;5047908;28;20052;-65
2021/11/27 07:15:03;;;;;;;5.68;2.95;;;;;;;;;;5055500;28;20068;-65
2021/11/27 07:17:30;;;;;;;5.60;1.92;;;;;;;;;;5055960;28;20509;-65
2021/11/27 07:19:57;;;;;;;3.35;2.10;;;;;;;;;;5048153;28;20052;-66
2021/11/27 07:22:24;;;;;;;4.07;2.47;;;;;;;;;;5049094;28;20053;-66
2021/11/27 07:24:51;;;;;;;3.25;2.00;;;;;;;;;;5044038;28;20391;-66
2021/11/27 07:27:17;;;;;;;3.45;2.47;;;;;;;;;;5055552;28;20053;-66
2021/11/27 07:29:43;;;;;;;2.78;1.73;;;;;;;;;;5047672;28;20051;-66
2021/11/27 07:32:10;;;;;;;3.42;2.03;;;;;;;;;;5056048;28;20045;-66
2021/11/27 07:34:37;;;;;;;4.03;2.58;;;;;;;;;;5053314;28;20745;-66
2021/11/27 07:37:03;;;;;;;4.38;2.50;;;;;;;;;;5044532;28;20238;-66
2021/11/27 07:39:30;;;;;;;5.10;2.72;;;;;;;;;;5059478;28;20063;-66
2021/11/27 07:41:56;;;;;;;4.63;2.63;;;;;;;;;;5050799;28;20059;-66
2021/11/27 07:44:23;;;;;;;5.47;3.22;;;;;;;;;;5059042;28;20591;-66
2021/11/27 07:46:53;;;;;;;4.47;2.85;;;;;;;;;;5050886;28;20175;-66
2021/11/27 07:49:20;;;;;;;7.07;3.47;;;;;;;;;;5054279;28;20040;-66
2021/11/27 07:51:46;;;;;;;6.57;3.33;;;;;;;;;;5054080;28;20049;-67
2021/11/27 07:54:12;;;;;;;6.47;3.88;;;;;;;;;;5050781;28;20048;-67
2021/11/27 07:56:39;;;;;;;7.43;4.32;;;;;;;;;;5058912;28;20059;-67
2021/11/27 07:59:05;;;;;;;7.60;4.38;;;;;;;;;;5052084;28;20059;-66
2021/11/27 08:01:33;;;;;;;8.82;4.38;;;;;;;;;;5058387;28;20049;-66
2021/11/27 08:04:00;;;;;;;8.70;4.72;;;;;;;;;;5044244;28;20055;-66
2021/11/27 08:06:26;;;;;;;8.68;4.82;;;;;;;;;;5053494;28;20044;-66
2021/11/27 08:08:52;;;;;;;7.88;4.60;;;;;;;;;;5058500;28;20056;-67
2021/11/27 08:11:19;;;;;;;9.82;4.57;;;;;;;;;;5051050;28;20071;-66
2021/11/27 08:13:47;;;;;;;9.55;4.82;;;;;;;;;;5059231;28;20059;-66
2021/11/27 08:16:14;;;;;;;7.53;4.38;;;;;;;;;;5049714;28;20045;-66
2021/11/27 08:18:41;;;;;;;9.02;4.40;;;;;;;;;;5033036;28;20060;-67
2021/11/27 08:21:07;;;;;;;8.60;4.28;;;;;;;;;;5050346;28;20059;-66
2021/11/27 08:23:47;;;;;;;7.32;3.95;;;;;;;;;;5057709;28;20056;-66
2021/11/27 08:26:14;;;;;;;7.00;4.10;;;;;;;;;;5057674;28;20456;-66
2021/11/27 08:28:40;;;;;;;8.98;4.10;;;;;;;;;;5049071;28;20059;-66
2021/11/27 08:31:06;;;;;;;8.27;4.32;;;;;;;;;;5053810;28;20409;-67
2021/11/27 08:33:33;;;;;;;9.75;3.95;;;;;;;;;;5045224;28;20040;-66
2021/11/27 08:36:00;;;;;;;8.50;3.45;;;;;;;;;;5058206;28;20094;-66
2021/11/27 08:38:29;;;;;;;7.43;3.67;;;;;;;;;;5051229;28;20048;-67
2021/11/27 08:40:57;;;;;;;7.82;3.50;;;;;;;;;;5057605;28;20052;-66
2021/11/27 08:43:24;;;;;;;8.48;3.40;;;;;;;;;;5057580;28;20102;-66
2021/11/27 08:45:50;;;;;;;6.40;3.83;;;;;;;;;;5042158;28;20040;-66
2021/11/27 08:48:17;;;;;;;6.95;4.00;;;;;;;;;;5055260;28;20051;-66
2021/11/27 08:50:44;;;;;;;7.72;3.90;;;;;;;;;;5048741;28;20044;-66
2021/11/27 08:53:10;;;;;;;7.38;3.88;;;;;;;;;;5058160;28;20059;-66
2021/11/27 08:55:36;;;;;;;5.40;3.25;;;;;;;;;;5049140;28;20044;-66
2021/11/27 08:58:02;;;;;;;9.73;3.83;;;;;;;;;;5055520;28;20578;-66
2021/11/27 09:00:29;;;;;;;7.07;3.63;;;;;;;;;;5055282;28;20052;-66
2021/11/27 09:02:57;;;;;;;6.78;3.70;;;;;;;;;;5030334;28;20048;-66
2021/11/27 09:05:24;;;;;;;5.47;2.97;;;;;;;;;;5057088;28;20048;-66
2021/11/27 09:07:50;;;;;;;9.70;4.20;;;;;;;;;;5047931;28;20547;-66
2021/11/27 09:10:17;;;;;;;5.72;3.55;;;;;;;;;;5058839;28;20737;-67
2021/11/27 09:12:43;;;;;;;6.22;3.50;;;;;;;;;;5026018;28;20473;-67
2021/11/27 09:15:10;;;;;;;5.22;2.95;;;;;;;;;;5053027;28;20540;-67
2021/11/27 09:17:36;;;;;;;5.05;3.10;;;;;;;;;;5057151;28;20048;-67
2021/11/27 09:20:03;;;;;;;7.30;3.05;;;;;;;;;;5049535;28;20368;-67
2021/11/27 09:22:29;;;;;;;6.90;3.58;;;;;;;;;;5057226;28;20055;-67
2021/11/27 09:24:56;;;;;;;4.55;2.85;;;;;;;;;;5049153;28;20079;-67
2021/11/27 09:27:22;;;;;;;5.70;3.25;;;;;;;;;;5058426;28;20056;-67
2021/11/27 09:29:48;;;;;;;5.63;3.00;;;;;;;;;;5051154;28;20059;-67
2021/11/27 09:32:15;;;;;;;5.63;2.78;;;;;;;;;;5056956;28;20466;-67
2021/11/27 09:34:41;;;;;;;7.50;3.45;;;;;;;;;;5056384;28;20139;-67
2021/11/27 09:37:12;;;;;;;4.72;2.85;;;;;;;;;;5044435;28;20052;-67
2021/11/27 09:39:40;;;;;;;5.32;3.03;;;;;;;;;;5051346;28;20052;-66
2021/11/27 09:42:07;;;;;;;4.70;2.75;;;;;;;;;;5048767;28;20048;-67
2021/11/27 09:44:35;;;;;;;5.43;2.60;;;;;;;;;;5058726;28;21208;-67
2021/11/27 09:47:02;;;;;;;5.28;2.35;;;;;;;;;;5052054;28;20056;-66
2021/11/27 09:49:28;;;;;;;3.47;1.88;;;;;;;;;;5057564;28;20504;-66
2021/11/27 09:51:55;;;;;;;4.35;2.05;;;;;;;;;;5051860;28;20045;-66
2021/11/27 09:54:22;;;;;;;4.00;1.90;;;;;;;;;;5047796;28;20048;-67
2021/11/27 09:56:49;;;;;;;4.25;2.17;;;;;;;;;;5058676;28;20048;-66
2021/11/27 09:59:16;;;;;;;3.08;1.70;;;;;;;;;;5052007;28;20493;-66
2021/11/27 10:01:45;;;;;;;2.53;1.65;;;;;;;;;;5057760;28;20056;-66
2021/11/27 10:04:12;;;;;;;3.22;1.48;;;;;;;;;;5047131;28;20048;-65
2021/11/27 10:06:39;;;;;;;3.03;1.80;;;;;;;;;;5055888;28;20048;-66
2021/11/27 10:09:10;;;;;;;3.25;1.90;;;;;;;;;;5053815;28;20051;-66
2021/11/27 10:11:37;;;;;;;2.88;1.55;;;;;;;;;;5058089;28;20055;-66
2021/11/27 10:14:04;;;;;;;4.22;2.30;;;;;;;;;;5059029;28;20055;-66
2021/11/27 10:16:32;;;;;;;4.68;1.95;;;;;;;;;;5049568;28;20059;-66
2021/11/27 10:19:01;;;;;;;6.97;2.72;;;;;;;;;;5053806;28;20057;-66
2021/11/27 10:21:28;;;;;;;5.88;2.70;;;;;;;;;;5050063;28;20059;-66
2021/11/27 10:23:54;;;;;;;6.40;3.13;;;;;;;;;;5056139;28;20049;-66
2021/11/27 10:26:33;;;;;;;8.65;3.22;;;;;;;;;;5048687;28;20512;-66
2021/11/27 10:28:59;;;;;;;;;;;;;;;;;;5057059;28;20040;-66
2021/11/27 10:31:28;;;;;;;9.32;3.67;;;;;;;;;;5051193;28;20431;-66
2021/11/27 10:33:59;;;;;;;8.18;4.18;;;;;;;;;;5044666;28;20048;-66
2021/11/27 10:36:30;;;;;;;11.50;5.15;;;;;;;;;;5056687;28;20508;-66
2021/11/27 10:39:03;;;;;;;10.63;4.70;;;;;;;;;;5048431;28;20421;-66
2021/11/27 10:41:35;;;;;;;11.35;4.65;;;;;;;;;;5056367;28;20089;-66
2021/11/27 10:44:08;;;;;;;11.82;4.65;;;;;;;;;;5045066;28;20269;-66
2021/11/27 10:46:36;;;;;;;13.57;5.53;;;;;;;;;;5050999;28;20052;-66
2021/11/27 10:49:04;;;;;;;12.02;6.20;;;;;;;;;;5056192;28;20056;-66
2021/11/27 10:51:31;;;;;;;12.48;5.80;;;;;;;;;;5047318;28;20665;-66
2021/11/27 10:53:59;;;;;;;12.40;6.72;;;;;;;;;;5054975;28;20489;-66
2021/11/27 10:56:40;;;;;;;14.97;7.00;;;;;;;;;;5048377;28;20418;-65
2021/11/27 10:59:07;;;;;;;13.65;6.78;;;;;;;;;;5048581;28;20770;-65
2021/11/27 11:01:52;;;;;;;18.42;8.25;;;;;;;;;;5044750;28;20055;-65
2021/11/27 11:04:18;;;;;;;19.05;8.75;;;;;;;;;;5053776;28;20097;-65
2021/11/27 11:06:45;;;;;;;16.77;8.05;;;;;;;;;;5044583;28;20303;-65
2021/11/27 11:09:12;;;;;;;19.52;8.90;;;;;;;;;;5050064;28;20052;-65
2021/11/27 11:11:38;;;;;;;27.77;9.77;;;;;;;;;;5051650;28;20552;-66
2021/11/27 11:14:21;;;;;;;31.67;12.35;;;;;;;;;;5046201;28;20052;-66
2021/11/27 11:16:58;;;;;;;30.30;13.50;;;;;;;;;;5054085;28;20056;-66
2021/11/27 11:19:25;;;;;;;29.30;12.27;;;;;;;;;;5045012;28;20466;-66
2021/11/27 11:22:06;;;;;;;31.00;12.20;;;;;;;;;;5053973;28;20103;-67
2021/11/27 11:24:33;;;;;;;31.40;12.23;;;;;;;;;;5046611;28;20044;-66
2021/11/27 11:27:00;;;;;;;27.33;11.95;;;;;;;;;;5056174;28;20061;-66
2021/11/27 11:29:42;;;;;;;35.42;12.98;;;;;;;;;;5047988;28;20049;-67
2021/11/27 11:32:20;;;;;;;29.92;12.40;;;;;;;;;;5048401;28;20661;-67
2021/11/27 11:34:48;;;;;;;36.25;13.77;;;;;;;;;;5049532;28;20041;-66
2021/11/27 11:37:15;;;;;;;35.85;14.10;;;;;;;;;;5047109;28;20044;-66
2021/11/27 11:39:41;;;;;;;34.65;15.07;;;;;;;;;;5054643;28;20044;-66
2021/11/27 11:42:08;;;;;;;39.92;16.10;;;;;;;;;;5046759;28;20428;-67
2021/11/27 11:44:35;;;;;;;42.08;18.10;;;;;;;;;;5054348;28;20056;-66
2021/11/27 11:47:02;;;;;;;40.28;17.90;;;;;;;;;;5040174;28;20048;-66
2021/11/27 11:49:29;;;;;;;40.40;16.85;;;;;;;;;;5047389;28;20421;-67
2021/11/27 11:51:55;;;;;;;38.83;17.63;;;;;;;;;;5052938;28;20318;-66
2021/11/27 11:54:24;;;;;;;40.90;17.52;;;;;;;;;;5046191;28;20051;-66
2021/11/27 11:57:01;;;;;;;44.50;18.85;;;;;;;;;;5052566;28;20155;-67
2021/11/27 11:59:28;;;;;;;43.17;18.52;;;;;;;;;;5045622;28;20052;-66
2021/11/27 12:02:13;;;;;;;37.53;17.65;;;;;;;;;;5045054;28;20176;-67
2021/11/27 12:04:59;;;;;;;37.00;17.77;;;;;;;;;;5044769;28;20045;-66
2021/11/27 12:07:41;;;;;;;32.42;16.38;;;;;;;;;;5054077;28;20052;-66
2021/11/27 12:10:14;;;;;;;37.53;16.70;;;;;;;;;;5045888;28;20428;-67
2021/11/27 12:12:41;;;;;;;40.97;17.48;;;;;;;;;;5054161;28;20492;-67
2021/11/27 12:15:08;;;;;;;35.63;16.60;;;;;;;;;;5040962;28;20056;-66
2021/11/27 12:17:54;;;;;;;38.38;16.75;;;;;;;;;;5047185;28;20079;-67
2021/11/27 12:20:20;;;;;;;41.75;16.52;;;;;;;;;;5052502;28;20280;-66
2021/11/27 12:22:47;;;;;;;38.08;16.58;;;;;;;;;;5047029;28;20205;-66
2021/11/27 12:25:23;;;;;;;35.35;14.50;;;;;;;;;;5057414;28;20049;-66
2021/11/27 12:27:59;;;;;;;30.13;12.80;;;;;;;;;;5045954;28;20052;-67
2021/11/27 12:30:26;;;;;;;41.17;15.57;;;;;;;;;;5053959;28;20859;-67
2021/11/27 12:32:53;;;;;;;30.33;13.00;;;;;;;;;;5048856;28;20211;-67
2021/11/27 12:35:29;;;;;;;33.03;13.85;;;;;;;;;;5056016;28;20406;-67
2021/11/27 12:38:17;;;;;;;29.70;11.88;;;;;;;;;;5049269;28;20075;-67
2021/11/27 12:40:45;;;;;;;38.45;12.93;;;;;;;;;;5043367;28;20051;-67
2021/11/27 12:43:16;;;;;;;24.40;10.68;;;;;;;;;;5049848;28;20064;-67
2021/11/27 12:45:44;;;;;;;28.77;10.35;;;;;;;;;;5049675;28;20059;-67
2021/11/27 12:48:29;;;;;;;26.17;10.30;;;;;;;;;;5057174;28;20529;-67
2021/11/27 12:51:17;;;;;;;27.13;11.68;;;;;;;;;;5049105;28;20502;-66
2021/11/27 12:53:43;;;;;;;;;;;;;;;;;;5056862;28;20056;-67
2021/11/27 12:56:10;;;;;;;25.05;10.23;;;;;;;;;;5045231;28;19935;-66
2021/11/27 12:58:39;;;;;;;26.17;10.68;;;;;;;;;;5051563;28;20056;-67
2021/11/27 13:01:05;;;;;;;28.38;11.10;;;;;;;;;;5049722;28;20051;-67
2021/11/27 13:03:32;;;;;;;28.00;9.43;;;;;;;;;;5056360;28;20056;-67
2021/11/27 13:05:59;;;;;;;29.48;11.27;;;;;;;;;;5056664;28;20509;-67
2021/11/27 13:08:26;;;;;;;28.33;10.50;;;;;;;;;;5053232;28;20492;-67
2021/11/27 13:10:54;;;;;;;31.63;10.60;;;;;;;;;;5050705;28;20337;-67
2021/11/27 13:13:21;;;;;;;22.75;10.20;;;;;;;;;;5046824;28;20075;-67
2021/11/27 13:15:49;;;;;;;27.30;10.10;;;;;;;;;;5057173;28;20612;-67
2021/11/27 13:18:17;;;;;;;23.20;8.10;;;;;;;;;;5048582;28;20048;-67
2021/11/27 13:20:46;;;;;;;20.25;8.80;;;;;;;;;;5057180;28;20041;-67
2021/11/27 13:23:14;;;;;;;20.83;8.48;;;;;;;;;;5052676;28;20049;-67
2021/11/27 13:25:42;;;;;;;30.23;9.82;;;;;;;;;;5046126;28;20049;-67
2021/11/27 13:28:20;;;;;;;17.38;8.70;;;;;;;;;;5058262;28;20049;-67
2021/11/27 13:30:47;;;;;;;;;;;;;;;;;;5049409;28;20068;-67
2021/11/27 13:33:13;;;;;;;21.90;8.88;;;;;;;;;;5056775;28;20004;-66
2021/11/27 13:35:39;;;;;;;22.73;9.15;;;;;;;;;;5048625;28;20040;-66
2021/11/27 13:38:08;;;;;;;24.73;9.85;;;;;;;;;;5049823;28;20052;-66
2021/11/27 13:40:39;;;;;;;21.73;8.55;;;;;;;;;;5046627;28;20057;-66
2021/11/27 13:43:05;;;;;;;26.25;9.30;;;;;;;;;;5055202;28;20056;-67
2021/11/27 13:45:32;;;;;;;20.58;8.38;;;;;;;;;;5056547;28;20056;-67
2021/11/27 13:47:59;;;;;;;21.13;8.68;;;;;;;;;;5048033;28;20067;-67
2021/11/27 13:50:26;;;;;;;19.77;8.98;;;;;;;;;;5051312;28;20104;-67
2021/11/27 13:52:53;;;;;;;16.05;7.50;;;;;;;;;;5044680;28;20044;-66
2021/11/27 13:55:22;;;;;;;24.35;8.75;;;;;;;;;;5055256;28;20048;-67
2021/11/27 13:57:50;;;;;;;23.52;9.13;;;;;;;;;;5047855;28;21055;-67
2021/11/27 14:00:20;;;;;;;20.63;8.10;;;;;;;;;;5056790;28;20060;-67
2021/11/27 14:02:47;;;;;;;20.88;9.02;;;;;;;;;;5055111;28;20647;-67
2021/11/27 14:05:14;;;;;;;17.48;8.98;;;;;;;;;;5041618;28;20056;-67
2021/11/27 14:07:41;;;;;;;24.08;8.57;;;;;;;;;;5051779;28;20417;-67
2021/11/27 14:10:18;;;;;;;24.02;8.18;;;;;;;;;;5048376;28;20354;-67
2021/11/27 14:12:49;;;;;;;19.40;8.30;;;;;;;;;;5056812;28;20067;-67
2021/11/27 14:15:23;;;;;;;19.48;7.75;;;;;;;;;;5048869;28;20048;-67
2021/11/27 14:18:02;;;;;;;20.08;8.13;;;;;;;;;;5052054;28;20044;-66
2021/11/27 14:20:55;;;;;;;24.75;8.45;;;;;;;;;;5043193;28;20052;-67
2021/11/27 14:23:23;;;;;;;20.20;8.20;;;;;;;;;;5055092;28;20817;-68
2021/11/27 14:26:06;;;;;;;20.70;9.43;;;;;;;;;;5050805;28;20441;-66
2021/11/27 14:28:34;;;;;;;21.02;8.52;;;;;;;;;;5054582;28;20075;-67
2021/11/27 14:31:15;;;;;;;27.58;9.60;;;;;;;;;;5052474;28;20139;-67
2021/11/27 14:33:42;;;;;;;21.35;9.07;;;;;;;;;;5039865;28;20048;-67
2021/11/27 14:36:11;;;;;;;21.48;9.35;;;;;;;;;;5053178;28;20502;-67
2021/11/27 14:38:39;;;;;;;23.75;8.55;;;;;;;;;;5045553;28;20044;-67
2021/11/27 14:41:11;;;;;;;23.77;10.50;;;;;;;;;;5055328;28;20056;-67